TimePDT,TemperatureF,Dew PointF,Humidity,Sea Level PressureIn,VisibilityMPH,Wind Direction,Wind SpeedMPH,Gust SpeedMPH,PrecipitationIn,Events,Conditions,WindDirDegrees,DateUTC
12:52 AM,64.9,54.0,68,29.98,10.0,SW,5.8,-,N/A,,Mostly Cloudy,230,2012-10-12 07:52:00
1:52 AM,63.0,54.0,72,29.99,10.0,Calm,Calm,-,N/A,,Mostly Cloudy,0,2012-10-12 08:52:00
2:32 AM,64.4,53.6,68,29.99,8.0,West,8.1,-,0.01,Rain,Light Rain,260,2012-10-12 09:32:00
2:52 AM,62.1,54.0,75,29.99,7.0,Calm,Calm,-,0.04,Rain,Light Rain,0,2012-10-12 09:52:00
3:52 AM,62.1,53.1,72,29.99,8.0,South,8.1,-,0.03,,Mostly Cloudy,180,2012-10-12 10:52:00
4:34 AM,62.6,55.4,77,29.99,8.0,Calm,Calm,-,0.00,Rain,Light Rain,0,2012-10-12 11:34:00
4:52 AM,63.0,55.0,75,30.01,8.0,Calm,Calm,-,0.00,Rain,Light Rain,0,2012-10-12 11:52:00
5:29 AM,62.6,55.4,77,30.02,8.0,Calm,Calm,-,0.00,,Mostly Cloudy,0,2012-10-12 12:29:00
5:44 AM,62.6,55.4,77,30.04,4.0,WNW,6.9,-,0.04,Rain,Rain,290,2012-10-12 12:44:00
5:52 AM,62.1,55.0,78,30.04,2.0,West,3.5,-,0.30,Rain,Heavy Rain,270,2012-10-12 12:52:00
5:59 AM,60.8,55.4,82,30.04,4.0,North,5.8,-,0.10,Rain,Rain,350,2012-10-12 12:59:00
6:18 AM,60.8,55.4,82,30.04,6.0,NE,5.8,-,0.11,,Mostly Cloudy,40,2012-10-12 13:18:00
6:52 AM,61.0,55.0,81,30.06,10.0,SE,3.5,-,0.11,,Mostly Cloudy,140,2012-10-12 13:52:00
7:52 AM,63.0,57.9,84,30.08,9.0,Calm,Calm,-,N/A,,Mostly Cloudy,0,2012-10-12 14:52:00
8:52 AM,66.0,55.9,70,30.10,10.0,SSE,4.6,-,N/A,,Mostly Cloudy,160,2012-10-12 15:52:00
9:52 AM,68.0,55.9,65,30.12,10.0,SSE,5.8,-,N/A,,Mostly Cloudy,160,2012-10-12 16:52:00
10:52 AM,69.1,55.9,63,30.13,10.0,South,5.8,-,N/A,,Mostly Cloudy,180,2012-10-12 17:52:00
11:52 AM,70.0,57.0,63,30.13,10.0,South,9.2,-,N/A,,Mostly Cloudy,190,2012-10-12 18:52:00
12:52 PM,70.0,57.0,63,30.13,10.0,SSW,8.1,-,N/A,,Mostly Cloudy,210,2012-10-12 19:52:00
1:52 PM,71.1,54.0,55,30.12,10.0,West,9.2,-,N/A,,Mostly Cloudy,260,2012-10-12 20:52:00
2:52 PM,72.0,54.0,53,30.12,10.0,West,9.2,-,N/A,,Mostly Cloudy,270,2012-10-12 21:52:00
3:52 PM,72.0,54.0,53,30.12,10.0,WNW,6.9,-,N/A,,Mostly Cloudy,290,2012-10-12 22:52:00
4:52 PM,71.1,54.0,55,30.12,10.0,West,10.4,-,N/A,,Scattered Clouds,280,2012-10-12 23:52:00
5:52 PM,69.1,55.0,61,30.12,10.0,WNW,10.4,-,N/A,,Scattered Clouds,300,2012-10-13 00:52:00
6:52 PM,68.0,55.9,65,30.12,10.0,WNW,9.2,-,N/A,,Scattered Clouds,300,2012-10-13 01:52:00
7:52 PM,68.0,55.0,63,30.13,10.0,North,11.5,-,N/A,,Partly Cloudy,350,2012-10-13 02:52:00
8:52 PM,66.9,55.0,66,30.13,10.0,North,10.4,-,N/A,,Partly Cloudy,350,2012-10-13 03:52:00
9:52 PM,66.0,55.0,68,30.14,10.0,NNE,5.8,-,N/A,,Partly Cloudy,30,2012-10-13 04:52:00
10:52 PM,66.0,55.0,68,30.15,10.0,North,4.6,-,N/A,,Partly Cloudy,10,2012-10-13 05:52:00
11:52 PM,64.0,55.0,73,30.14,10.0,Calm,Calm,-,N/A,,Partly Cloudy,0,2012-10-13 06:52:00